Time,TemperatureF,DewpointF,PressureIn,WindDirection,WindDirectionDegrees,WindSpeedMPH,WindSpeedGustMPH,Humidity,HourlyPrecipIn,Conditions,Clouds,dailyrainin,SoftwareType,DateUTC
2013-02-16 00:17:00,176.2,99.9,30.21,NNW,337,0.0,0.0,100,0.00,,,0.00,open2300-1.11,2013-02-16 06:17:00,
2013-02-16 00:28:00,176.2,99.9,30.20,NNW,337,0.0,0.0,100,0.00,,,0.00,open2300-1.11,2013-02-16 06:28:00,
2013-02-16 00:37:00,14.2,3.5,30.20,NNW,337,0.0,0.0,62,0.00,,,0.00,open2300-1.11,2013-02-16 06:37:00,
2013-02-16 00:47:00,14.2,3.5,30.20,NNW,337,0.0,0.0,62,0.00,,,0.00,open2300-1.11,2013-02-16 06:47:00,
2013-02-16 00:57:00,14.2,3.5,30.20,NNW,337,0.0,0.0,62,0.00,,,0.00,open2300-1.11,2013-02-16 06:57:00,
2013-02-16 01:07:00,176.2,99.9,30.20,NNW,337,0.0,0.0,100,0.00,,,0.00,open2300-1.11,2013-02-16 07:07:00,
2013-02-16 01:17:00,176.2,99.9,30.20,NNW,337,0.0,0.0,100,0.00,,,0.00,open2300-1.11,2013-02-16 07:17:00,
2013-02-16 01:27:00,176.2,99.9,30.20,NNW,337,0.0,0.0,100,0.00,,,0.00,open2300-1.11,2013-02-16 07:27:00,
2013-02-16 01:37:00,13.6,13.6,30.19,NNW,337,0.0,0.0,100,0.00,,,0.00,open2300-1.11,2013-02-16 07:37:00,
2013-02-16 01:47:00,13.6,13.6,30.19,NNW,337,0.0,0.0,100,0.00,,,0.00,open2300-1.11,2013-02-16 07:47:00,
2013-02-16 01:57:00,13.6,13.6,30.19,NNW,337,0.0,0.0,100,0.00,,,0.00,open2300-1.11,2013-02-16 07:57:00,
2013-02-16 02:07:00,13.6,3.7,30.19,NNW,337,0.0,0.0,64,0.00,,,0.00,open2300-1.11,2013-02-16 08:07:00,
2013-02-16 02:17:00,13.6,3.7,30.19,NNW,337,0.0,0.0,64,0.00,,,0.00,open2300-1.11,2013-02-16 08:17:00,
2013-02-16 02:27:00,13.6,3.7,30.19,NNW,337,0.0,0.0,64,0.00,,,0.00,open2300-1.11,2013-02-16 08:27:00,
2013-02-16 02:37:00,177.4,99.9,30.19,NNW,337,0.0,0.0,100,0.00,,,0.00,open2300-1.11,2013-02-16 08:37:00,
2013-02-16 02:47:00,12.7,2.4,30.19,NNW,337,0.0,0.0,63,0.00,,,0.00,open2300-1.11,2013-02-16 08:47:00,
2013-02-16 02:57:00,12.6,2.2,30.19,NNW,337,0.0,0.0,63,0.00,,,0.00,open2300-1.11,2013-02-16 08:57:00,
2013-02-16 03:07:00,12.4,2.1,30.18,NNW,337,0.0,0.0,63,0.00,,,0.00,open2300-1.11,2013-02-16 09:07:00,
2013-02-16 03:17:00,12.0,1.7,30.19,NNW,337,0.0,0.0,63,0.00,,,0.00,open2300-1.11,2013-02-16 09:17:00,
2013-02-16 03:27:00,11.7,1.4,30.18,NNW,337,0.0,0.0,63,0.00,,,0.00,open2300-1.11,2013-02-16 09:27:00,
2013-02-16 03:37:00,11.1,0.9,30.19,NNW,337,0.0,0.0,63,0.00,,,0.00,open2300-1.11,2013-02-16 09:37:00,
2013-02-16 03:47:00,10.9,1.0,30.19,NNW,337,0.0,0.0,64,0.00,,,0.00,open2300-1.11,2013-02-16 09:47:00,
2013-02-16 03:57:00,10.6,0.7,30.18,NNW,337,0.0,0.0,64,0.00,,,0.00,open2300-1.11,2013-02-16 09:57:00,
2013-02-16 04:07:00,10.2,0.4,30.19,NNW,337,0.0,0.0,64,0.00,,,0.00,open2300-1.11,2013-02-16 10:07:00,
2013-02-16 04:17:00,10.0,0.2,30.19,NNW,337,0.0,0.0,64,0.00,,,0.00,open2300-1.11,2013-02-16 10:17:00,
2013-02-16 04:27:00,9.5,-0.3,30.18,NNW,337,0.0,0.0,64,0.00,,,0.00,open2300-1.11,2013-02-16 10:27:00,
2013-02-16 04:37:00,9.0,-0.9,30.19,NNW,337,0.0,0.0,64,0.00,,,0.00,open2300-1.11,2013-02-16 10:37:00,
2013-02-16 04:47:00,8.6,-1.2,30.18,NNW,337,0.0,0.0,64,0.00,,,0.00,open2300-1.11,2013-02-16 10:47:00,
2013-02-16 04:57:00,8.4,-1.4,30.18,NNW,337,0.0,0.0,64,0.00,,,0.00,open2300-1.11,2013-02-16 10:57:00,
2013-02-16 05:07:00,8.1,-1.4,30.18,NNW,337,0.0,0.0,65,0.00,,,0.00,open2300-1.11,2013-02-16 11:07:00,
2013-02-16 05:17:00,7.5,-1.9,30.19,NNW,337,0.0,0.0,65,0.00,,,0.00,open2300-1.11,2013-02-16 11:17:00,
2013-02-16 05:27:00,7.3,-2.1,30.18,NNW,337,0.0,0.0,65,0.00,,,0.00,open2300-1.11,2013-02-16 11:27:00,
2013-02-16 05:37:00,7.0,-2.4,30.18,NNW,337,0.0,0.0,65,0.00,,,0.00,open2300-1.11,2013-02-16 11:37:00,
2013-02-16 05:47:00,6.6,-2.7,30.18,NNW,337,0.0,0.0,65,0.00,,,0.00,open2300-1.11,2013-02-16 11:47:00,
2013-02-16 05:57:00,6.4,-2.6,30.18,NNW,337,0.0,0.0,66,0.00,,,0.00,open2300-1.11,2013-02-16 11:57:00,
2013-02-16 06:07:00,6.4,-2.6,30.18,NNW,337,0.0,0.0,66,0.00,,,0.00,open2300-1.11,2013-02-16 12:07:00,
2013-02-16 06:17:00,6.4,-2.6,30.18,NNW,337,0.0,0.0,66,0.00,,,0.00,open2300-1.11,2013-02-16 12:17:00,
2013-02-16 06:27:00,6.6,-2.4,30.19,NNW,337,0.0,0.0,66,0.00,,,0.00,open2300-1.11,2013-02-16 12:27:00,
2013-02-16 06:37:00,6.8,-2.2,30.18,NNW,337,0.0,0.0,66,0.00,,,0.00,open2300-1.11,2013-02-16 12:37:00,
2013-02-16 06:47:00,7.0,-1.8,30.19,NNW,337,0.0,0.0,67,0.00,,,0.00,open2300-1.11,2013-02-16 12:47:00,
2013-02-16 06:57:00,7.0,-1.8,30.19,NNW,337,0.0,0.0,67,0.00,,,0.00,open2300-1.11,2013-02-16 12:57:00,
2013-02-16 07:07:00,7.2,-1.6,30.19,NNW,337,0.0,0.0,67,0.00,,,0.00,open2300-1.11,2013-02-16 13:07:00,
2013-02-16 07:17:00,7.2,-1.6,30.19,NNW,337,0.0,0.0,67,0.00,,,0.00,open2300-1.11,2013-02-16 13:17:00,
2013-02-16 07:27:00,7.2,-1.6,30.19,NNW,337,0.0,0.0,67,0.00,,,0.00,open2300-1.11,2013-02-16 13:27:00,
2013-02-16 07:37:00,7.3,-1.4,30.20,NNW,337,0.0,0.0,67,0.00,,,0.00,open2300-1.11,2013-02-16 13:37:00,
2013-02-16 07:47:00,7.3,-1.4,30.20,NNW,337,0.0,0.0,67,0.00,,,0.00,open2300-1.11,2013-02-16 13:47:00,
2013-02-16 07:57:00,176.5,99.9,30.20,NNW,337,0.0,0.0,100,0.00,,,0.00,open2300-1.11,2013-02-16 13:57:00,
2013-02-16 08:07:00,176.5,99.9,30.20,NNW,337,0.0,0.0,100,0.00,,,0.00,open2300-1.11,2013-02-16 14:07:00,
2013-02-16 08:17:00,176.5,99.9,30.20,NNW,337,0.0,0.0,100,0.00,,,0.00,open2300-1.11,2013-02-16 14:17:00,
2013-02-16 08:27:00,176.5,99.9,30.20,NNW,337,0.0,0.0,100,0.00,,,0.00,open2300-1.11,2013-02-16 14:27:00,
2013-02-16 08:37:00,176.5,99.9,30.20,NNW,337,0.0,0.0,100,0.00,,,0.00,open2300-1.11,2013-02-16 14:37:00,
2013-02-16 08:47:00,176.5,99.9,30.20,NNW,337,0.0,0.0,100,0.00,,,0.00,open2300-1.11,2013-02-16 14:47:00,
2013-02-16 08:57:00,8.2,-0.5,30.19,NNW,337,0.0,0.0,67,0.00,,,0.00,open2300-1.11,2013-02-16 14:57:00,
2013-02-16 09:07:00,8.4,-0.3,30.20,NNW,337,0.0,0.0,67,0.00,,,0.00,open2300-1.11,2013-02-16 15:07:00,
2013-02-16 09:17:00,8.4,-0.3,30.20,NNW,337,0.0,0.0,67,0.00,,,0.00,open2300-1.11,2013-02-16 15:17:00,
2013-02-16 09:28:00,8.8,0.0,30.20,NNW,337,0.0,0.0,67,0.00,,,0.00,open2300-1.11,2013-02-16 15:28:00,
2013-02-16 09:37:00,8.8,0.0,30.19,NNW,337,0.0,0.0,67,0.00,,,0.00,open2300-1.11,2013-02-16 15:37:00,
2013-02-16 09:47:00,176.2,99.9,30.20,NNW,337,0.0,0.0,100,0.00,,,0.00,open2300-1.11,2013-02-16 15:47:00,
2013-02-16 09:56:00,176.2,99.9,30.20,NNW,337,0.0,0.0,66,0.00,,,0.00,open2300-1.11,2013-02-16 15:56:00,
2013-02-16 10:07:00,176.2,99.9,30.20,NNW,337,0.0,0.0,66,0.00,,,0.00,open2300-1.11,2013-02-16 16:07:00,
2013-02-16 10:17:00,176.2,99.9,30.20,NNW,337,0.0,0.0,100,0.00,,,0.00,open2300-1.11,2013-02-16 16:17:00,
2013-02-16 10:27:00,176.2,99.9,30.20,NNW,337,0.0,0.0,100,0.00,,,0.00,open2300-1.11,2013-02-16 16:27:00,
2013-02-16 10:37:00,176.2,99.9,30.19,NNW,337,0.0,0.0,100,0.00,,,0.00,open2300-1.11,2013-02-16 16:37:00,
2013-02-16 10:47:00,14.7,5.0,30.20,NNW,337,0.0,0.0,65,0.00,,,0.00,open2300-1.11,2013-02-16 16:47:00,
2013-02-16 10:57:00,15.6,5.5,30.20,NNW,337,0.0,0.0,64,0.00,,,0.00,open2300-1.11,2013-02-16 16:57:00,
2013-02-16 11:07:00,16.0,5.8,30.19,NNW,337,0.0,0.0,64,0.00,,,0.00,open2300-1.11,2013-02-16 17:07:00,
2013-02-16 11:17:00,176.2,99.9,30.18,NNW,337,0.0,0.0,100,0.00,,,0.00,open2300-1.11,2013-02-16 17:17:00,
2013-02-16 11:27:00,176.2,99.9,30.18,NNW,337,0.0,0.0,100,0.00,,,0.00,open2300-1.11,2013-02-16 17:27:00,
2013-02-16 11:37:00,176.2,99.9,30.19,NNW,337,0.0,0.0,100,0.00,,,0.00,open2300-1.11,2013-02-16 17:37:00,
2013-02-16 11:47:00,176.2,99.9,30.19,NNW,337,0.0,0.0,100,0.00,,,0.00,open2300-1.11,2013-02-16 17:47:00,
2013-02-16 11:57:00,176.2,99.9,30.18,NNW,337,0.0,0.0,100,0.00,,,0.00,open2300-1.11,2013-02-16 17:57:00,
2013-02-16 12:07:00,176.2,99.9,30.18,NNW,337,0.0,0.0,100,0.00,,,0.00,open2300-1.11,2013-02-16 18:07:00,
2013-02-16 12:17:00,16.9,5.4,30.18,NNW,337,0.0,0.0,60,0.00,,,0.00,open2300-1.11,2013-02-16 18:17:00,
2013-02-16 12:27:00,17.4,5.9,30.17,NNW,337,0.0,0.0,60,0.00,,,0.00,open2300-1.11,2013-02-16 18:27:00,
2013-02-16 12:37:00,16.9,4.6,30.17,NNW,337,0.0,0.0,58,0.00,,,0.00,open2300-1.11,2013-02-16 18:37:00,
2013-02-16 12:47:00,17.4,5.5,30.17,NNW,337,0.0,0.0,59,0.00,,,0.00,open2300-1.11,2013-02-16 18:47:00,
2013-02-16 12:57:00,18.0,5.6,30.16,NNW,337,0.0,0.0,58,0.00,,,0.00,open2300-1.11,2013-02-16 18:57:00,
2013-02-16 13:07:00,18.3,5.9,30.16,NNW,337,0.0,0.0,58,0.00,,,0.00,open2300-1.11,2013-02-16 19:07:00,
2013-02-16 13:17:00,18.5,5.7,30.16,NNW,337,0.0,0.0,57,0.00,,,0.00,open2300-1.11,2013-02-16 19:17:00,
2013-02-16 13:27:00,18.7,6.3,30.16,NNW,337,0.0,0.0,58,0.00,,,0.00,open2300-1.11,2013-02-16 19:27:00,
2013-02-16 13:37:00,18.7,6.3,30.16,NNW,337,0.0,0.0,58,0.00,,,0.00,open2300-1.11,2013-02-16 19:37:00,
2013-02-16 13:47:00,177.1,99.9,30.16,NNW,337,0.0,0.0,100,0.00,,,0.00,open2300-1.11,2013-02-16 19:47:00,
2013-02-16 13:57:00,177.1,99.9,30.16,NNW,337,0.0,0.0,100,0.00,,,0.00,open2300-1.11,2013-02-16 19:57:00,
2013-02-16 14:07:00,177.1,99.9,30.16,NNW,337,0.0,0.0,100,0.00,,,0.00,open2300-1.11,2013-02-16 20:07:00,
2013-02-16 14:17:00,177.1,99.9,30.16,NNW,337,0.0,0.0,100,0.00,,,0.00,open2300-1.11,2013-02-16 20:17:00,
2013-02-16 14:27:00,177.1,99.9,30.16,NNW,337,0.0,0.0,100,0.00,,,0.00,open2300-1.11,2013-02-16 20:27:00,
2013-02-16 14:36:00,177.1,99.9,30.15,NNW,337,0.0,0.0,57,0.00,,,0.00,open2300-1.11,2013-02-16 20:36:00,
2013-02-16 14:47:00,177.1,99.9,30.15,NNW,337,0.0,0.0,100,0.00,,,0.00,open2300-1.11,2013-02-16 20:47:00,
2013-02-16 14:57:00,177.1,99.9,30.15,NNW,337,0.0,0.0,100,0.00,,,0.00,open2300-1.11,2013-02-16 20:57:00,
2013-02-16 15:07:00,177.1,99.9,30.15,NNW,337,0.0,0.0,100,0.00,,,0.00,open2300-1.11,2013-02-16 21:07:00,
2013-02-16 15:17:00,177.1,99.9,30.16,NNW,337,0.0,0.0,100,0.00,,,0.00,open2300-1.11,2013-02-16 21:17:00,
2013-02-16 15:27:00,177.1,99.9,30.15,NNW,337,0.0,0.0,100,0.00,,,0.00,open2300-1.11,2013-02-16 21:27:00,
2013-02-16 15:37:00,177.1,99.9,30.16,NNW,337,0.0,0.0,100,0.00,,,0.00,open2300-1.11,2013-02-16 21:37:00,
2013-02-16 15:47:00,177.1,99.9,30.16,NNW,337,0.0,0.0,100,0.00,,,0.00,open2300-1.11,2013-02-16 21:47:00,
2013-02-16 15:57:00,177.1,99.9,30.16,NNW,337,0.0,0.0,100,0.00,,,0.00,open2300-1.11,2013-02-16 21:57:00,
2013-02-16 16:07:00,177.1,99.9,30.16,NNW,337,0.0,0.0,100,0.00,,,0.00,open2300-1.11,2013-02-16 22:07:00,
2013-02-16 16:17:00,177.1,99.9,30.16,NNW,337,0.0,0.0,56,0.00,,,0.00,open2300-1.11,2013-02-16 22:17:00,
2013-02-16 16:27:00,177.1,99.9,30.16,NNW,337,0.0,0.0,56,0.00,,,0.00,open2300-1.11,2013-02-16 22:27:00,
2013-02-16 16:37:00,177.1,99.9,30.16,NNW,337,0.0,0.0,56,0.00,,,0.00,open2300-1.11,2013-02-16 22:37:00,
2013-02-16 16:47:00,177.1,99.9,30.16,NNW,337,0.0,0.0,100,0.00,,,0.00,open2300-1.11,2013-02-16 22:47:00,
2013-02-16 16:57:00,177.1,99.9,30.16,NNW,337,0.0,0.0,100,0.00,,,0.00,open2300-1.11,2013-02-16 22:57:00,
2013-02-16 17:07:00,177.1,99.9,30.16,NNW,337,0.0,0.0,100,0.00,,,0.00,open2300-1.11,2013-02-16 23:07:00,
2013-02-16 17:17:00,177.1,99.9,30.17,NNW,337,0.0,0.0,100,0.00,,,0.00,open2300-1.11,2013-02-16 23:17:00,
2013-02-16 17:27:00,177.1,99.9,30.17,NNW,337,0.0,0.0,100,0.00,,,0.00,open2300-1.11,2013-02-16 23:27:00,
2013-02-16 17:37:00,177.1,99.9,30.17,NNW,337,0.0,0.0,100,0.00,,,0.00,open2300-1.11,2013-02-16 23:37:00,
2013-02-16 17:47:00,177.1,99.9,30.17,NNW,337,0.0,0.0,100,0.00,,,0.00,open2300-1.11,2013-02-16 23:47:00,
2013-02-16 17:57:00,177.1,99.9,30.16,NNW,337,0.0,0.0,57,0.00,,,0.00,open2300-1.11,2013-02-16 23:57:00,
2013-02-16 18:07:00,177.1,99.9,30.17,NNW,337,0.0,0.0,100,0.00,,,0.00,open2300-1.11,2013-02-17 00:07:00,
2013-02-16 18:17:00,177.1,99.9,30.17,NNW,337,0.0,0.0,100,0.00,,,0.00,open2300-1.11,2013-02-17 00:17:00,
2013-02-16 18:27:00,177.1,99.9,30.17,NNW,337,0.0,0.0,100,0.00,,,0.00,open2300-1.11,2013-02-17 00:27:00,
2013-02-16 18:37:00,177.1,99.9,30.17,NNW,337,0.0,0.0,100,0.00,,,0.00,open2300-1.11,2013-02-17 00:37:00,
2013-02-16 18:47:00,177.1,99.9,30.17,NNW,337,0.0,0.0,100,0.00,,,0.00,open2300-1.11,2013-02-17 00:47:00,
2013-02-16 18:57:00,14.2,2.8,30.17,NNW,337,0.0,0.0,60,0.00,,,0.00,open2300-1.11,2013-02-17 00:57:00,
2013-02-16 19:07:00,14.2,3.2,30.17,NNW,337,0.0,0.0,61,0.00,,,0.00,open2300-1.11,2013-02-17 01:07:00,
2013-02-16 19:17:00,14.2,3.2,30.16,NNW,337,0.0,0.0,61,0.00,,,0.00,open2300-1.11,2013-02-17 01:17:00,
2013-02-16 19:27:00,176.2,99.9,30.16,NNW,337,0.0,0.0,100,0.00,,,0.00,open2300-1.11,2013-02-17 01:27:00,
2013-02-16 19:37:00,176.2,99.9,30.17,NNW,337,0.0,0.0,100,0.00,,,0.00,open2300-1.11,2013-02-17 01:37:00,
2013-02-16 19:47:00,176.2,99.9,30.17,NNW,337,0.0,0.0,62,0.00,,,0.00,open2300-1.11,2013-02-17 01:47:00,
2013-02-16 19:57:00,12.0,1.7,30.17,NNW,337,0.0,0.0,63,0.00,,,0.00,open2300-1.11,2013-02-17 01:57:00,
2013-02-16 20:07:00,11.7,1.4,30.17,NNW,337,0.0,0.0,63,0.00,,,0.00,open2300-1.11,2013-02-17 02:07:00,
2013-02-16 20:17:00,11.5,1.2,30.17,NNW,337,0.0,0.0,63,0.00,,,0.00,open2300-1.11,2013-02-17 02:17:00,
2013-02-16 20:27:00,11.1,1.2,30.16,NNW,337,0.0,0.0,64,0.00,,,0.00,open2300-1.11,2013-02-17 02:27:00,
2013-02-16 20:36:00,10.6,0.7,30.16,NNW,337,0.0,0.0,64,0.00,,,0.00,open2300-1.11,2013-02-17 02:36:00,
2013-02-16 20:47:00,176.2,99.9,30.17,NNW,337,0.0,0.0,100,0.00,,,0.00,open2300-1.11,2013-02-17 02:47:00,
2013-02-16 20:57:00,176.2,99.9,30.16,NNW,337,0.0,0.0,100,0.00,,,0.00,open2300-1.11,2013-02-17 02:57:00,
2013-02-16 21:07:00,176.2,99.9,30.17,NNW,337,0.0,0.0,100,0.00,,,0.00,open2300-1.11,2013-02-17 03:07:00,
2013-02-16 21:17:00,9.1,-0.3,30.16,NNW,337,0.0,0.0,65,0.00,,,0.00,open2300-1.11,2013-02-17 03:17:00,
2013-02-16 21:27:00,8.6,-0.9,30.17,NNW,337,0.0,0.0,65,0.00,,,0.00,open2300-1.11,2013-02-17 03:27:00,
2013-02-16 21:37:00,8.4,-1.0,30.17,NNW,337,0.0,0.0,65,0.00,,,0.00,open2300-1.11,2013-02-17 03:37:00,
2013-02-16 21:47:00,8.2,-1.2,30.16,NNW,337,0.0,0.0,65,0.00,,,0.00,open2300-1.11,2013-02-17 03:47:00,
2013-02-16 21:57:00,7.9,-1.5,30.17,NNW,337,0.0,0.0,65,0.00,,,0.00,open2300-1.11,2013-02-17 03:57:00,
2013-02-16 22:07:00,7.7,-1.4,30.16,NNW,337,0.0,0.0,66,0.00,,,0.00,open2300-1.11,2013-02-17 04:07:00,
2013-02-16 22:17:00,7.7,-1.4,30.17,NNW,337,0.0,0.0,66,0.00,,,0.00,open2300-1.11,2013-02-17 04:17:00,
2013-02-16 22:27:00,7.0,-2.1,30.17,NNW,337,0.0,0.0,66,0.00,,,0.00,open2300-1.11,2013-02-17 04:27:00,
2013-02-16 22:37:00,7.0,-2.1,30.16,NNW,337,0.0,0.0,66,0.00,,,0.00,open2300-1.11,2013-02-17 04:37:00,
2013-02-16 22:47:00,176.2,99.9,30.16,NNW,337,0.0,0.0,100,0.00,,,0.00,open2300-1.11,2013-02-17 04:47:00,
2013-02-16 22:57:00,176.2,99.9,30.16,NNW,337,0.0,0.0,100,0.00,,,0.00,open2300-1.11,2013-02-17 04:57:00,
2013-02-16 23:07:00,176.2,99.9,30.16,NNW,337,0.0,0.0,100,0.00,,,0.00,open2300-1.11,2013-02-17 05:07:00,
2013-02-16 23:17:00,5.0,-4.0,30.16,NNW,337,0.0,0.0,66,0.00,,,0.00,open2300-1.11,2013-02-17 05:17:00,
2013-02-16 23:27:00,4.5,-4.5,30.15,NNW,337,0.0,0.0,66,0.00,,,0.00,open2300-1.11,2013-02-17 05:27:00,
2013-02-16 23:37:00,4.1,-4.5,30.15,NNW,337,0.0,0.0,67,0.00,,,0.00,open2300-1.11,2013-02-17 05:37:00,
2013-02-16 23:47:00,3.7,-5.2,30.16,NNW,337,0.0,0.0,66,0.00,,,0.00,open2300-1.11,2013-02-17 05:47:00,
2013-02-16 23:57:00,3.4,-5.5,30.15,NNW,337,0.0,0.0,66,0.00,,,0.00,open2300-1.11,2013-02-17 05:57:00,